Time;durP1;ratioP1;P1;durP2;ratioP2;P2;SDS_P1;SDS_P2;PMS_P1;PMS_P2;Temp;Humidity;BMP_temperature;BMP_pressure;BME280_temperature;BME280_humidity;BME280_pressure;Samples;Min_cycle;Max_cycle;Signal;HPM_P1;HPM_P2
2023/12/11 00:04:22;;;;;;;;;;;;;;;6.26;100.00;94745.09;10454116;28;3033;-70
2023/12/11 00:09:25;;;;;;;;;;;;;;;6.44;100.00;94736.50;10489760;28;2807;-72
2023/12/11 00:14:27;;;;;;;;;;;;;;;6.55;100.00;94742.56;10472184;28;2799;-72
2023/12/11 00:19:30;;;;;;;;;;;;;;;6.76;100.00;94744.91;10462564;28;2927;-73
2023/12/11 00:24:32;;;;;;;;;;;;;;;6.86;100.00;94752.06;10455336;28;2914;-72
2023/12/11 00:29:36;;;;;;;;;;;;;;;6.89;100.00;94759.53;10462326;28;2884;-71
2023/12/11 00:34:38;;;;;;;;;;;;;;;7.00;100.00;94761.09;10455047;28;2915;-73
2023/12/11 00:39:41;;;;;;;;;;;;;;;6.97;100.00;94736.78;10460259;28;2875;-75
2023/12/11 00:44:44;;;;;;;;;;;;;;;7.05;100.00;94739.66;10456708;28;5047;-75
2023/12/11 00:49:46;;;;;;;;;;;;;;;7.21;100.00;94750.28;10453420;28;2846;-73
2023/12/11 00:54:49;;;;;;;;;;;;;;;7.35;100.00;94769.16;10464638;28;2903;-75
2023/12/11 00:59:52;;;;;;;;;;;;;;;7.33;100.00;94788.16;10459042;28;3213;-73
2023/12/11 01:04:54;;;;;;;;;;;;;;;7.26;100.00;94779.66;10457009;28;3013;-74
2023/12/11 01:09:57;;;;;;;;;;;;;;;7.33;100.00;94798.84;10496568;28;2832;-75
2023/12/11 01:15:00;;;;;;;;;;;;;;;7.38;100.00;94798.84;10456162;28;2773;-71
2023/12/11 01:20:03;;;;;;;;;;;;;;;7.43;100.00;94814.03;10451022;28;2761;-70
2023/12/11 01:25:06;;;;;;;;;;;;;;;7.41;100.00;94825.00;10453754;28;2894;-75
2023/12/11 01:30:09;;;;;;;;;;;;;;;7.37;100.00;94848.00;10463668;28;2823;-73
2023/12/11 01:35:11;;;;;;;;;;;;;;;7.35;100.00;94849.38;10457168;28;2808;-72
2023/12/11 01:40:14;;;;;;;;;;;;;;;7.30;100.00;94866.22;10459064;28;2938;-74
2023/12/11 01:45:16;;;;;;;;;;;;;;;7.23;100.00;94853.16;10466664;28;5087;-72
2023/12/11 01:50:19;;;;;;;;;;;;;;;7.05;100.00;94849.22;10452765;28;3018;-71
2023/12/11 01:55:22;;;;;;;;;;;;;;;6.88;100.00;94829.28;10468639;28;3200;-70
2023/12/11 02:00:24;;;;;;;;;;;;;;;6.78;100.00;94840.78;10465399;28;2805;-73
2023/12/11 02:05:26;;;;;;;;;;;;;;;6.83;100.00;94830.09;10504563;28;2723;-74
2023/12/11 02:10:29;;;;;;;;;;;;;;;6.85;100.00;94843.97;10462181;28;2935;-71
2023/12/11 02:15:32;;;;;;;;;;;;;;;6.78;100.00;94830.09;10497254;28;2931;-71
2023/12/11 02:20:35;;;;;;;;;;;;;;;6.68;100.00;94867.50;10469472;28;2818;-70
2023/12/11 02:25:37;;;;;;;;;;;;;;;6.58;100.00;94880.91;10464449;28;2871;-71
2023/12/11 02:30:39;;;;;;;;;;;;;;;6.42;100.00;94880.09;10465494;28;3180;-72
2023/12/11 02:35:43;;;;;;;;;;;;;;;6.34;100.00;94869.97;10458244;28;2896;-71
2023/12/11 02:40:46;;;;;;;;;;;;;;;6.31;100.00;94874.00;10461909;28;2845;-71
2023/12/11 02:45:49;;;;;;;;;;;;;;;6.31;100.00;94863.31;10460036;28;5285;-70
2023/12/11 02:50:51;;;;;;;;;;;;;;;6.30;100.00;94883.06;10459222;28;2860;-71
2023/12/11 02:55:54;;;;;;;;;;;;;;;6.34;100.00;94884.13;10458218;28;2791;-70
2023/12/11 03:00:57;;;;;;;;;;;;;;;6.28;100.00;94879.84;10486999;28;2840;-72
2023/12/11 03:06:03;;;;;;;;;;;;;;;6.32;100.00;94912.97;10452006;28;2896;-72
2023/12/11 03:11:05;;;;;;;;;;;;;;;6.30;100.00;94924.94;10458739;28;2807;-70
2023/12/11 03:16:08;;;;;;;;;;;;;;;6.28;100.00;94938.56;10457801;28;2885;-71
2023/12/11 03:21:10;;;;;;;;;;;;;;;6.27;100.00;94942.31;10461605;28;3206;-70
2023/12/11 03:26:13;;;;;;;;;;;;;;;6.28;100.00;94937.78;10457003;28;2881;-70
2023/12/11 03:31:16;;;;;;;;;;;;;;;6.21;100.00;94938.03;10458207;28;2839;-72
2023/12/11 03:36:18;;;;;;;;;;;;;;;6.18;100.00;94939.38;10458597;28;2874;-72
2023/12/11 03:41:21;;;;;;;;;;;;;;;6.21;100.00;94938.03;10453796;28;2849;-71
2023/12/11 03:46:23;;;;;;;;;;;;;;;6.27;100.00;94930.84;10457039;28;2882;-74
2023/12/11 03:51:26;;;;;;;;;;;;;;;6.29;100.00;94936.69;10453471;28;2927;-73
2023/12/11 03:56:28;;;;;;;;;;;;;;;6.34;100.00;94926.81;10453495;28;2840;-76
2023/12/11 04:01:31;;;;;;;;;;;;;;;6.30;100.00;94925.78;10458810;28;3175;-73
2023/12/11 04:06:33;;;;;;;;;;;;;;;6.27;100.00;94926.28;10454495;28;2774;-74
2023/12/11 04:11:36;;;;;;;;;;;;;;;6.27;100.00;94909.47;10456563;28;2923;-75
2023/12/11 04:16:38;;;;;;;;;;;;;;;6.30;100.00;94915.09;10461419;28;2904;-74
2023/12/11 04:21:41;;;;;;;;;;;;;;;6.32;100.00;94904.94;10452685;28;2899;-76
2023/12/11 04:26:44;;;;;;;;;;;;;;;6.29;100.00;94894.78;10455564;28;2974;-71
2023/12/11 04:31:46;;;;;;;;;;;;;;;6.30;100.00;94914.28;10459950;28;2852;-71
2023/12/11 04:36:48;;;;;;;;;;;;;;;6.34;100.00;94910.00;10449033;28;2958;-70
2023/12/11 04:41:51;;;;;;;;;;;;;;;6.33;100.00;94903.88;10452693;28;5066;-70
2023/12/11 04:46:53;;;;;;;;;;;;;;;6.40;100.00;94899.06;10461673;28;2958;-71
2023/12/11 04:51:56;;;;;;;;;;;;;;;6.47;100.00;94899.59;10453194;28;2980;-74
2023/12/11 04:56:58;;;;;;;;;;;;;;;6.54;100.00;94888.63;10457067;28;2812;-71
2023/12/11 05:02:01;;;;;;;;;;;;;;;6.57;100.00;94874.75;10453565;28;2898;-72
2023/12/11 05:07:03;;;;;;;;;;;;;;;6.48;100.00;94842.44;10450595;28;2964;-71
2023/12/11 05:12:06;;;;;;;;;;;;;;;6.34;100.00;94840.63;10458103;28;2891;-70
2023/12/11 05:17:09;;;;;;;;;;;;;;;6.15;100.00;94827.03;10458685;28;2942;-72
2023/12/11 05:22:11;;;;;;;;;;;;;;;5.99;100.00;94804.13;10465704;28;2863;-73
2023/12/11 05:27:14;;;;;;;;;;;;;;;5.88;100.00;94821.94;10455380;28;2916;-71
2023/12/11 05:32:17;;;;;;;;;;;;;;;5.82;100.00;94850.47;10464598;28;2906;-72
2023/12/11 05:37:19;;;;;;;;;;;;;;;5.80;100.00;94859.81;10466148;28;2786;-72
2023/12/11 05:42:22;;;;;;;;;;;;;;;5.81;100.00;94858.75;10461369;28;2973;-72
2023/12/11 05:47:24;;;;;;;;;;;;;;;5.73;100.00;94861.94;10461210;28;2829;-70
2023/12/11 05:52:27;;;;;;;;;;;;;;;5.73;100.00;94856.63;10460644;28;2844;-72
2023/12/11 05:57:30;;;;;;;;;;;;;;;5.66;100.00;94830.19;10463744;28;2844;-71
2023/12/11 06:02:33;;;;;;;;;;;;;;;5.63;100.00;94828.88;10451277;28;2841;-71
2023/12/11 06:07:35;;;;;;;;;;;;;;;5.66;100.00;94820.34;10463797;28;2866;-73
2023/12/11 06:12:38;;;;;;;;;;;;;;;5.62;100.00;94840.59;10463430;28;2851;-69
2023/12/11 06:17:40;;;;;;;;;;;;;;;5.77;100.00;94852.34;10458682;28;2896;-70
2023/12/11 06:22:43;;;;;;;;;;;;;;;5.82;100.00;94850.47;10463083;28;2936;-69
2023/12/11 06:27:45;;;;;;;;;;;;;;;5.85;100.00;94838.47;10465623;28;2946;-71
2023/12/11 06:32:49;;;;;;;;;;;;;;;5.92;100.00;94829.19;10461323;28;2860;-74
2023/12/11 06:37:52;;;;;;;;;;;;;;;6.12;100.00;94807.03;10465602;28;2903;-72
2023/12/11 06:42:54;;;;;;;;;;;;;;;6.21;100.00;94823.28;10467054;28;2803;-72
2023/12/11 06:47:57;;;;;;;;;;;;;;;6.22;100.00;94843.56;10467646;28;2803;-74
2023/12/11 06:53:00;;;;;;;;;;;;;;;6.28;100.00;94842.47;10464878;28;2858;-72
2023/12/11 06:58:02;;;;;;;;;;;;;;;6.44;100.00;94838.72;10471431;28;2882;-72
2023/12/11 07:03:05;;;;;;;;;;;;;;;6.63;100.00;94832.81;10454730;28;2848;-72
2023/12/11 07:08:08;;;;;;;;;;;;;;;6.71;100.00;94808.22;10461041;28;2873;-72
2023/12/11 07:13:11;;;;;;;;;;;;;;;6.80;100.00;94798.56;10456691;28;2891;-68
2023/12/11 07:18:13;;;;;;;;;;;;;;;6.78;100.00;94792.69;10458680;28;2834;-70
2023/12/11 07:23:16;;;;;;;;;;;;;;;6.86;100.00;94792.13;10463919;28;2905;-70
2023/12/11 07:28:19;;;;;;;;;;;;;;;7.05;100.00;94806.47;10462242;28;2823;-69
2023/12/11 07:33:22;;;;;;;;;;;;;;;7.11;100.00;94806.44;10462307;28;2800;-69
2023/12/11 07:38:25;;;;;;;;;;;;;;;7.34;100.00;94791.63;10457185;28;2945;-70
2023/12/11 07:43:27;;;;;;;;;;;;;;;7.48;100.00;94773.88;10460106;28;5022;-73
2023/12/11 07:48:30;;;;;;;;;;;;;;;7.72;100.00;94773.97;10464554;28;2973;-73
2023/12/11 07:53:34;;;;;;;;;;;;;;;7.92;100.00;94757.75;10464257;28;2849;-73
2023/12/11 07:58:37;;;;;;;;;;;;;;;8.07;100.00;94754.13;10465243;28;2862;-72
2023/12/11 08:03:40;;;;;;;;;;;;;;;8.19;100.00;94759.91;10462643;28;2854;-70
2023/12/11 08:08:43;;;;;;;;;;;;;;;8.24;100.00;94745.69;10460846;28;2864;-72
2023/12/11 08:13:46;;;;;;;;;;;;;;;8.33;100.00;94741.28;10455537;28;2886;-71
2023/12/11 08:18:48;;;;;;;;;;;;;;;8.27;100.00;94747.78;10478114;28;2853;-70
2023/12/11 08:23:51;;;;;;;;;;;;;;;8.27;100.00;94727.19;10470397;28;2846;-74
2023/12/11 08:28:54;;;;;;;;;;;;;;;8.31;100.00;94719.34;10468272;28;2860;-76
2023/12/11 08:34:00;;;;;;;;;;;;;;;8.47;100.00;94714.69;10495612;28;3551;-75
2023/12/11 08:39:03;;;;;;;;;;;;;;;8.59;100.00;94705.16;10468313;28;2813;-76
2023/12/11 08:44:05;;;;;;;;;;;;;;;8.61;100.00;94696.81;10461802;28;2855;-75
2023/12/11 08:49:08;;;;;;;;;;;;;;;8.65;100.00;94722.75;10468549;28;2869;-76
2023/12/11 08:54:10;;;;;;;;;;;;;;;8.79;100.00;94716.69;10474955;28;2816;-77
2023/12/11 08:59:15;;;;;;;;;;;;;;;8.93;100.00;94702.28;10470484;28;2801;-77
2023/12/11 09:04:18;;;;;;;;;;;;;;;8.88;100.00;94725.69;10460508;28;2858;-72
2023/12/11 09:09:21;;;;;;;;;;;;;;;8.88;100.00;94721.09;10475807;28;2837;-75
2023/12/11 09:14:24;;;;;;;;;;;;;;;8.75;100.00;94726.38;10470342;28;2860;-77
2023/12/11 09:19:27;;;;;;;;;;;;;;;8.72;100.00;94756.44;10465612;28;2829;-72
2023/12/11 09:24:45;;;;;;;;;;;;;;;8.84;100.00;94759.47;10465709;28;2879;-72
2023/12/11 09:29:48;;;;;;;;;;;;;;;9.00;100.00;94750.19;10466523;28;2947;-77
2023/12/11 09:34:52;;;;;;;;;;;;;;;9.12;100.00;94753.22;10466905;28;2964;-76
2023/12/11 09:39:55;;;;;;;;;;;;;;;9.07;100.00;94734.53;10471822;28;2811;-69
2023/12/11 09:44:57;;;;;;;;;;;;;;;9.09;100.00;94692.13;10467445;28;5217;-69
2023/12/11 09:50:00;;;;;;;;;;;;;;;9.26;100.00;94693.50;10469643;28;2870;-69
2023/12/11 09:55:02;;;;;;;;;;;;;;;9.37;100.00;94701.13;10494019;28;2842;-70
2023/12/11 10:00:05;;;;;;;;;;;;;;;9.52;100.00;94670.56;10461136;28;2939;-71
2023/12/11 10:05:09;;;;;;;;;;;;;;;9.73;100.00;94665.66;10463113;28;2902;-74
2023/12/11 10:10:12;;;;;;;;;;;;;;;9.74;100.00;94705.63;10471945;28;2851;-72
2023/12/11 10:15:14;;;;;;;;;;;;;;;9.55;100.00;94739.75;10495029;28;2820;-72
2023/12/11 10:20:17;;;;;;;;;;;;;;;9.50;100.00;94747.06;10469662;28;2886;-70
2023/12/11 10:25:19;;;;;;;;;;;;;;;9.45;100.00;94745.25;10468189;28;2902;-69
2023/12/11 10:30:22;;;;;;;;;;;;;;;9.33;100.00;94726.91;10466707;28;2931;-68
2023/12/11 10:35:29;;;;;;;;;;;;;;;9.34;100.00;94733.06;10458304;28;2924;-70
2023/12/11 10:40:32;;;;;;;;;;;;;;;9.38;100.00;94723.38;10464521;28;2917;-72
2023/12/11 10:45:35;;;;;;;;;;;;;;;9.43;100.00;94715.25;10463361;28;5051;-73
2023/12/11 10:50:38;;;;;;;;;;;;;;;9.44;100.00;94722.22;10463425;28;2807;-71
2023/12/11 10:55:40;;;;;;;;;;;;;;;9.35;100.00;94691.75;10466331;28;2874;-72
2023/12/11 11:00:43;;;;;;;;;;;;;;;9.44;100.00;94701.53;10464931;28;2795;-71
2023/12/11 11:05:46;;;;;;;;;;;;;;;9.41;100.00;94714.72;10461186;28;2824;-75
2023/12/11 11:10:48;;;;;;;;;;;;;;;9.47;100.00;94733.13;10458908;28;2811;-74
2023/12/11 11:15:51;;;;;;;;;;;;;;;9.38;100.00;94747.50;10472840;28;2930;-71
2023/12/11 11:20:53;;;;;;;;;;;;;;;9.26;100.00;94736.41;10467993;28;2928;-72
2023/12/11 11:25:56;;;;;;;;;;;;;;;9.24;100.00;94728.69;10463543;28;2855;-74
2023/12/11 11:30:58;;;;;;;;;;;;;;;9.27;100.00;94705.84;10463705;28;2814;-78
2023/12/11 11:36:02;;;;;;;;;;;;;;;9.28;100.00;94670.66;10501410;28;2886;-73
2023/12/11 11:41:04;;;;;;;;;;;;;;;9.45;100.00;94680.88;10462320;28;5054;-69
2023/12/11 11:46:07;;;;;;;;;;;;;;;9.46;100.00;94718.13;10470432;28;3031;-71
2023/12/11 11:51:09;;;;;;;;;;;;;;;9.51;100.00;94705.75;10459844;28;2883;-70
2023/12/11 11:56:12;;;;;;;;;;;;;;;9.36;100.00;94702.22;10455950;28;2882;-73
2023/12/11 12:01:14;;;;;;;;;;;;;;;9.19;100.00;94715.34;10469060;28;2895;-71
2023/12/11 12:06:18;;;;;;;;;;;;;;;9.15;100.00;94709.75;10467698;28;2879;-70
2023/12/11 12:11:20;;;;;;;;;;;;;;;8.98;100.00;94733.59;10463642;28;2876;-70
2023/12/11 12:16:22;;;;;;;;;;;;;;;8.81;100.00;94733.28;10465857;28;2840;-70
2023/12/11 12:21:25;;;;;;;;;;;;;;;8.62;100.00;94757.34;10469480;28;2823;-71
2023/12/11 12:26:28;;;;;;;;;;;;;;;8.54;100.00;94710.56;10460258;28;2851;-69
2023/12/11 12:31:32;;;;;;;;;;;;;;;8.50;100.00;94685.44;10462881;28;2772;-69
2023/12/11 12:36:34;;;;;;;;;;;;;;;8.49;100.00;94715.19;10462619;28;2951;-69
2023/12/11 12:41:36;;;;;;;;;;;;;;;8.44;100.00;94694.59;10461633;28;5079;-70
2023/12/11 12:46:39;;;;;;;;;;;;;;;8.57;100.00;94683.19;10458508;28;2793;-70
2023/12/11 12:51:42;;;;;;;;;;;;;;;8.56;100.00;94692.31;10462948;28;2778;-70
2023/12/11 12:56:44;;;;;;;;;;;;;;;8.60;100.00;94693.34;10456041;28;2871;-71
2023/12/11 13:01:48;;;;;;;;;;;;;;;8.75;100.00;94670.13;10465385;28;2803;-68
2023/12/11 13:06:51;;;;;;;;;;;;;;;8.75;100.00;94686.19;10460208;28;2846;-69
2023/12/11 13:11:53;;;;;;;;;;;;;;;8.68;100.00;94693.78;10469222;28;2740;-72
2023/12/11 13:16:56;;;;;;;;;;;;;;;8.54;100.00;94753.41;10462731;28;2831;-70
2023/12/11 13:21:58;;;;;;;;;;;;;;;8.51;100.00;94747.81;10462447;28;2783;-71
2023/12/11 13:27:01;;;;;;;;;;;;;;;8.39;100.00;94751.69;10457193;28;2829;-71
2023/12/11 13:32:03;;;;;;;;;;;;;;;8.32;100.00;94726.31;10455478;28;2922;-72
2023/12/11 13:37:06;;;;;;;;;;;;;;;8.31;100.00;94752.28;10490741;28;2812;-71
2023/12/11 13:42:08;;;;;;;;;;;;;;;8.23;100.00;94746.75;10462681;28;4927;-70
2023/12/11 13:47:11;;;;;;;;;;;;;;;8.21;100.00;94775.72;10461967;28;2870;-73
2023/12/11 13:52:13;;;;;;;;;;;;;;;8.13;100.00;94780.56;10465757;28;2847;-72
2023/12/11 13:57:16;;;;;;;;;;;;;;;8.05;100.00;94802.59;10459242;28;2892;-72
2023/12/11 14:02:18;;;;;;;;;;;;;;;8.02;100.00;94813.88;10455070;28;2863;-70
2023/12/11 14:07:41;;;;;;;;;;;;;;;7.98;100.00;94810.16;10465565;28;2807;-71
2023/12/11 14:12:44;;;;;;;;;;;;;;;7.96;100.00;94844.44;10468618;28;2847;-72
2023/12/11 14:17:47;;;;;;;;;;;;;;;7.96;100.00;94839.09;10461105;28;2899;-72
2023/12/11 14:22:49;;;;;;;;;;;;;;;7.77;100.00;94856.88;10460139;28;2805;-69
2023/12/11 14:27:52;;;;;;;;;;;;;;;7.52;100.00;94855.97;10455147;28;2839;-71
2023/12/11 14:32:55;;;;;;;;;;;;;;;7.45;100.00;94847.44;10458821;28;2925;-70
2023/12/11 14:37:57;;;;;;;;;;;;;;;7.31;100.00;94862.47;10466243;28;2844;-70
2023/12/11 14:43:02;;;;;;;;;;;;;;;7.24;100.00;94861.97;10462262;28;5047;-70
2023/12/11 14:48:04;;;;;;;;;;;;;;;7.12;100.00;94853.47;10462030;28;2991;-71
2023/12/11 14:53:07;;;;;;;;;;;;;;;7.18;100.00;94871.09;10452814;28;2908;-68
2023/12/11 14:58:09;;;;;;;;;;;;;;;7.08;100.00;94881.84;10470150;28;2891;-71
2023/12/11 15:03:12;;;;;;;;;;;;;;;6.99;100.00;94892.25;10460468;28;2917;-71
2023/12/11 15:08:14;;;;;;;;;;;;;;;6.87;100.00;94891.75;10463775;28;2805;-70
2023/12/11 15:13:17;;;;;;;;;;;;;;;6.80;100.00;94888.59;10461964;28;2848;-69
2023/12/11 15:18:20;;;;;;;;;;;;;;;6.78;100.00;94881.63;10460345;28;2800;-70
2023/12/11 15:23:22;;;;;;;;;;;;;;;6.85;100.00;94900.06;10459666;28;2833;-70
2023/12/11 15:28:25;;;;;;;;;;;;;;;6.84;100.00;94895.78;10462970;28;3010;-71
2023/12/11 15:33:27;;;;;;;;;;;;;;;6.84;100.00;94890.44;10459002;28;2921;-72
2023/12/11 15:38:31;;;;;;;;;;;;;;;6.83;100.00;94898.75;10456962;28;3189;-71
2023/12/11 15:43:34;;;;;;;;;;;;;;;6.72;100.00;94903.28;10452342;28;2899;-72
2023/12/11 15:48:37;;;;;;;;;;;;;;;6.74;100.00;94901.97;10458585;28;2862;-74
2023/12/11 15:53:40;;;;;;;;;;;;;;;6.74;100.00;94895.81;10459450;28;2808;-72
2023/12/11 15:58:42;;;;;;;;;;;;;;;6.69;100.00;94907.31;10459486;28;2840;-71
2023/12/11 16:03:44;;;;;;;;;;;;;;;6.83;100.00;94907.56;10449447;28;2892;-70
2023/12/11 16:08:47;;;;;;;;;;;;;;;6.77;100.00;94913.97;10456458;28;2939;-72
2023/12/11 16:13:50;;;;;;;;;;;;;;;6.73;100.00;94908.34;10483753;27;2893;-72
2023/12/11 16:18:53;;;;;;;;;;;;;;;6.67;100.00;94919.31;10458536;28;3156;-71
2023/12/11 16:23:56;;;;;;;;;;;;;;;6.53;100.00;94907.59;10463299;28;3130;-74
2023/12/11 16:28:59;;;;;;;;;;;;;;;6.40;100.00;94922.28;10451539;28;2920;-71
2023/12/11 16:34:02;;;;;;;;;;;;;;;6.38;100.00;94922.56;10461480;28;3021;-70
2023/12/11 16:39:06;;;;;;;;;;;;;;;6.32;100.00;94934.31;10458237;28;3314;-71
2023/12/11 16:44:09;;;;;;;;;;;;;;;6.30;100.00;94947.13;10456147;28;5113;-73
2023/12/11 16:49:11;;;;;;;;;;;;;;;6.27;100.00;94950.31;10462504;28;2867;-72
2023/12/11 16:54:14;;;;;;;;;;;;;;;6.34;100.00;94950.84;10461656;28;2880;-73
2023/12/11 16:59:16;;;;;;;;;;;;;;;6.35;100.00;94943.63;10456479;28;2954;-74
2023/12/11 17:04:19;;;;;;;;;;;;;;;6.30;100.00;94946.31;10457225;28;2821;-73
2023/12/11 17:09:21;;;;;;;;;;;;;;;6.21;100.00;94949.50;10462074;28;2804;-73
2023/12/11 17:14:24;;;;;;;;;;;;;;;6.23;100.00;94947.41;10465739;28;2841;-75
2023/12/11 17:19:26;;;;;;;;;;;;;;;6.21;100.00;94959.38;10466916;28;2875;-75
2023/12/11 17:24:29;;;;;;;;;;;;;;;6.32;100.00;94961.00;10473210;28;3003;-74
2023/12/11 17:29:32;;;;;;;;;;;;;;;6.35;100.00;94954.31;10465735;28;3037;-76
2023/12/11 17:34:34;;;;;;;;;;;;;;;6.48;100.00;94959.13;10465672;28;2847;-69
2023/12/11 17:39:36;;;;;;;;;;;;;;;6.51;100.00;94953.25;10465544;28;2905;-68
2023/12/11 17:44:39;;;;;;;;;;;;;;;6.56;100.00;94950.59;10469803;28;4838;-67
2023/12/11 17:49:41;;;;;;;;;;;;;;;6.68;100.00;94958.31;10469094;28;2911;-68
2023/12/11 17:54:48;;;;;;;;;;;;;;;6.72;100.00;94954.03;10465418;28;2816;-75
2023/12/11 17:59:51;;;;;;;;;;;;;;;6.68;100.00;94964.47;10466018;28;2906;-72
2023/12/11 18:04:54;;;;;;;;;;;;;;;6.79;100.00;94951.88;10467449;28;3000;-68
2023/12/11 18:09:56;;;;;;;;;;;;;;;6.82;100.00;94959.38;10471824;28;2821;-75
2023/12/11 18:14:59;;;;;;;;;;;;;;;6.82;100.00;94974.59;10468257;28;2922;-71
2023/12/11 18:20:04;;;;;;;;;;;;;;;6.80;100.00;94977.53;10464143;28;2801;-69
2023/12/11 18:25:06;;;;;;;;;;;;;;;6.76;100.00;94976.47;10469825;28;2726;-68
2023/12/11 18:30:09;;;;;;;;;;;;;;;6.68;100.00;94985.84;10456889;28;2854;-69
2023/12/11 18:35:11;;;;;;;;;;;;;;;6.73;100.00;95001.84;10463429;28;2902;-66
2023/12/11 18:40:15;;;;;;;;;;;;;;;6.75;100.00;95002.41;10460372;28;3004;-70
2023/12/11 18:45:18;;;;;;;;;;;;;;;6.76;100.00;95008.53;10459824;28;4949;-69
2023/12/11 18:50:20;;;;;;;;;;;;;;;6.81;100.00;95021.91;10470736;28;2939;-67
2023/12/11 18:55:23;;;;;;;;;;;;;;;6.73;100.00;95019.75;10470514;28;2988;-67
2023/12/11 19:00:26;;;;;;;;;;;;;;;6.64;100.00;95030.16;10463250;28;2824;-70
2023/12/11 19:05:28;;;;;;;;;;;;;;;6.63;100.00;95019.75;10465460;28;2935;-66
2023/12/11 19:10:30;;;;;;;;;;;;;;;6.76;100.00;95024.56;10470788;28;2729;-65
2023/12/11 19:15:33;;;;;;;;;;;;;;;6.75;100.00;95022.97;10461556;28;2885;-68
2023/12/11 19:20:36;;;;;;;;;;;;;;;6.73;100.00;95027.75;10471708;28;3008;-66
2023/12/11 19:25:38;;;;;;;;;;;;;;;6.79;100.00;95024.00;10461237;28;2945;-66
2023/12/11 19:30:41;;;;;;;;;;;;;;;6.74;100.00;95029.34;10458873;28;2910;-73
2023/12/11 19:35:43;;;;;;;;;;;;;;;6.85;100.00;95046.97;10464383;28;2839;-66
2023/12/11 19:40:47;;;;;;;;;;;;;;;6.96;100.00;95045.91;10467097;28;2881;-67
2023/12/11 19:45:50;;;;;;;;;;;;;;;7.01;100.00;95043.25;10461571;28;4861;-66
2023/12/11 19:50:52;;;;;;;;;;;;;;;6.96;100.00;95051.25;10465042;28;2875;-67
2023/12/11 19:55:55;;;;;;;;;;;;;;;7.10;100.00;95050.72;10463120;28;2941;-66
2023/12/11 20:00:58;;;;;;;;;;;;;;;7.07;100.00;95059.28;10465276;28;2820;-65
2023/12/11 20:06:00;;;;;;;;;;;;;;;7.11;100.00;95060.34;10451385;28;2980;-65
2023/12/11 20:11:03;;;;;;;;;;;;;;;7.30;100.00;95050.69;10461374;28;2870;-66
2023/12/11 20:16:06;;;;;;;;;;;;;;;7.30;100.00;95046.13;10447564;28;2847;-65
2023/12/11 20:21:09;;;;;;;;;;;;;;;7.37;100.00;95061.09;10488721;28;2816;-66
2023/12/11 20:26:15;;;;;;;;;;;;;;;7.43;100.00;95070.72;10451751;28;2963;-71
2023/12/11 20:31:17;;;;;;;;;;;;;;;7.30;100.00;95080.09;10454316;28;2839;-70
2023/12/11 20:36:20;;;;;;;;;;;;;;;7.48;100.00;95079.53;10457203;28;2860;-65
2023/12/11 20:41:23;;;;;;;;;;;;;;;7.56;100.00;95091.53;10457205;28;4890;-68
2023/12/11 20:46:26;;;;;;;;;;;;;;;7.47;100.00;95083.28;10456927;28;2919;-66
2023/12/11 20:51:28;;;;;;;;;;;;;;;7.50;100.00;95098.78;10459610;28;2900;-66
2023/12/11 20:56:31;;;;;;;;;;;;;;;7.43;100.00;95103.59;10458917;28;2900;-67
2023/12/11 21:01:34;;;;;;;;;;;;;;;7.36;100.00;95096.94;10462737;28;2965;-68
2023/12/11 21:06:38;;;;;;;;;;;;;;;7.22;100.00;95096.69;10458218;28;2906;-65
2023/12/11 21:11:41;;;;;;;;;;;;;;;7.29;100.00;95099.88;10459121;28;2924;-70
2023/12/11 21:16:43;;;;;;;;;;;;;;;7.23;100.00;95117.00;10455384;28;2881;-67
2023/12/11 21:21:46;;;;;;;;;;;;;;;7.16;100.00;95124.47;10457766;28;2963;-67
2023/12/11 21:26:48;;;;;;;;;;;;;;;7.12;100.00;95134.09;10459348;28;2805;-68
2023/12/11 21:31:52;;;;;;;;;;;;;;;7.20;100.00;95146.94;10453810;28;2886;-74
2023/12/11 21:36:55;;;;;;;;;;;;;;;6.94;100.00;95154.94;10456948;28;2862;-67
2023/12/11 21:41:57;;;;;;;;;;;;;;;6.62;100.00;95157.81;10461449;28;4925;-67
2023/12/11 21:46:59;;;;;;;;;;;;;;;6.58;100.00;95166.63;10456584;28;2922;-70
2023/12/11 21:52:03;;;;;;;;;;;;;;;6.44;100.00;95171.66;10462497;28;2849;-65
2023/12/11 21:57:06;;;;;;;;;;;;;;;6.23;100.00;95181.41;10454778;28;3671;-66
2023/12/11 22:02:08;;;;;;;;;;;;;;;6.13;100.00;95187.53;10459161;28;2998;-64
2023/12/11 22:07:10;;;;;;;;;;;;;;;6.04;100.00;95186.41;10460641;28;2835;-66
2023/12/11 22:12:16;;;;;;;;;;;;;;;5.98;100.00;95187.47;10469343;28;2973;-67
2023/12/11 22:17:20;;;;;;;;;;;;;;;5.95;100.00;95191.44;10470883;28;2864;-66
2023/12/11 22:22:22;;;;;;;;;;;;;;;5.90;100.00;95210.03;10462832;28;2829;-67
2023/12/11 22:27:25;;;;;;;;;;;;;;;6.11;100.00;95204.88;10459315;28;2834;-70
2023/12/11 22:32:27;;;;;;;;;;;;;;;6.20;100.00;95213.97;10456936;28;2913;-72
2023/12/11 22:37:30;;;;;;;;;;;;;;;6.29;100.00;95216.94;10455134;28;2871;-66
2023/12/11 22:42:32;;;;;;;;;;;;;;;6.34;100.00;95214.31;10455605;28;2904;-74
2023/12/11 22:47:35;;;;;;;;;;;;;;;6.28;100.00;95221.50;10459861;28;2877;-66
2023/12/11 22:52:37;;;;;;;;;;;;;;;6.30;100.00;95223.88;10468365;28;2916;-66
2023/12/11 22:57:40;;;;;;;;;;;;;;;6.33;100.00;95216.19;10464554;28;2893;-65
2023/12/11 23:02:42;;;;;;;;;;;;;;;6.35;100.00;95210.56;10463108;28;2960;-66
2023/12/11 23:07:46;;;;;;;;;;;;;;;6.27;100.00;95211.88;10459990;28;2936;-65
2023/12/11 23:12:49;;;;;;;;;;;;;;;6.17;100.00;95211.81;10462842;28;2880;-65
2023/12/11 23:17:51;;;;;;;;;;;;;;;6.02;100.00;95211.75;10461447;28;3027;-65
2023/12/11 23:22:54;;;;;;;;;;;;;;;5.89;100.00;95208.44;10468739;28;2868;-67
2023/12/11 23:27:57;;;;;;;;;;;;;;;5.88;100.00;95209.50;10455156;28;2885;-66
2023/12/11 23:32:59;;;;;;;;;;;;;;;5.90;100.00;95206.56;10459446;28;2892;-67
2023/12/11 23:38:02;;;;;;;;;;;;;;;5.87;100.00;95199.91;10454612;28;2880;-66
2023/12/11 23:43:04;;;;;;;;;;;;;;;5.74;100.00;95197.69;10462289;28;2935;-66
2023/12/11 23:48:07;;;;;;;;;;;;;;;5.63;100.00;95201.34;10457913;28;2905;-65
2023/12/11 23:53:09;;;;;;;;;;;;;;;5.60;100.00;95199.19;10457835;28;2938;-67
2023/12/11 23:58:12;;;;;;;;;;;;;;;5.43;100.00;95210.00;10454051;28;2860;-65
